sensor_id;sensor_type;location;lat;lon;timestamp;P1;durP1;ratioP1;P2;durP2;ratioP2
28459;SDS011;32528;45.712;9.192;2023-04-07T00:00:54;22.33;;;11.70;;
28459;SDS011;32528;45.712;9.192;2023-04-07T00:02:55;18.10;;;9.18;;
28459;SDS011;32528;45.712;9.192;2023-04-07T00:04:56;23.42;;;12.02;;
28459;SDS011;32528;45.712;9.192;2023-04-07T00:06:57;22.27;;;11.73;;
28459;SDS011;32528;45.712;9.192;2023-04-07T00:08:58;29.92;;;10.52;;
28459;SDS011;32528;45.712;9.192;2023-04-07T00:10:58;16.38;;;10.10;;
28459;SDS011;32528;45.712;9.192;2023-04-07T00:13:00;28.30;;;10.18;;
28459;SDS011;32528;45.712;9.192;2023-04-07T00:15:01;21.23;;;11.00;;
28459;SDS011;32528;45.712;9.192;2023-04-07T00:17:02;17.80;;;10.48;;
28459;SDS011;32528;45.712;9.192;2023-04-07T00:19:02;28.30;;;10.65;;
28459;SDS011;32528;45.712;9.192;2023-04-07T00:21:03;21.40;;;10.93;;
28459;SDS011;32528;45.712;9.192;2023-04-07T00:23:04;21.08;;;11.57;;
28459;SDS011;32528;45.712;9.192;2023-04-07T00:25:05;16.70;;;9.68;;
28459;SDS011;32528;45.712;9.192;2023-04-07T00:27:06;21.30;;;10.73;;
28459;SDS011;32528;45.712;9.192;2023-04-07T00:29:07;18.15;;;10.50;;
28459;SDS011;32528;45.712;9.192;2023-04-07T00:31:07;23.77;;;10.88;;
28459;SDS011;32528;45.712;9.192;2023-04-07T00:33:08;21.80;;;11.77;;
28459;SDS011;32528;45.712;9.192;2023-04-07T00:35:09;22.65;;;9.88;;
28459;SDS011;32528;45.712;9.192;2023-04-07T00:37:10;18.27;;;10.90;;
28459;SDS011;32528;45.712;9.192;2023-04-07T00:39:10;20.33;;;9.60;;
28459;SDS011;32528;45.712;9.192;2023-04-07T00:41:11;19.90;;;10.32;;
28459;SDS011;32528;45.712;9.192;2023-04-07T00:43:12;20.00;;;10.25;;
28459;SDS011;32528;45.712;9.192;2023-04-07T00:45:13;20.73;;;11.02;;
28459;SDS011;32528;45.712;9.192;2023-04-07T00:47:14;23.27;;;11.70;;
28459;SDS011;32528;45.712;9.192;2023-04-07T00:49:15;15.98;;;9.63;;
28459;SDS011;32528;45.712;9.192;2023-04-07T00:51:19;18.23;;;10.40;;
28459;SDS011;32528;45.712;9.192;2023-04-07T00:53:21;17.10;;;10.15;;
28459;SDS011;32528;45.712;9.192;2023-04-07T00:55:22;16.38;;;10.02;;
28459;SDS011;32528;45.712;9.192;2023-04-07T00:57:23;16.40;;;9.73;;
28459;SDS011;32528;45.712;9.192;2023-04-07T00:59:24;26.77;;;10.70;;
28459;SDS011;32528;45.712;9.192;2023-04-07T01:01:26;18.95;;;10.35;;
28459;SDS011;32528;45.712;9.192;2023-04-07T01:03:35;23.60;;;10.15;;
28459;SDS011;32528;45.712;9.192;2023-04-07T01:06:02;41.05;;;11.20;;
28459;SDS011;32528;45.712;9.192;2023-04-07T01:08:14;25.70;;;10.65;;
28459;SDS011;32528;45.712;9.192;2023-04-07T01:10:27;26.10;;;10.80;;
28459;SDS011;32528;45.712;9.192;2023-04-07T01:14:59;19.02;;;11.40;;
28459;SDS011;32528;45.712;9.192;2023-04-07T01:17:12;20.92;;;8.90;;
28459;SDS011;32528;45.712;9.192;2023-04-07T01:21:39;17.98;;;10.60;;
28459;SDS011;32528;45.712;9.192;2023-04-07T01:23:58;22.20;;;11.48;;
28459;SDS011;32528;45.712;9.192;2023-04-07T01:28:45;19.38;;;9.70;;
28459;SDS011;32528;45.712;9.192;2023-04-07T01:30:56;16.42;;;9.85;;
28459;SDS011;32528;45.712;9.192;2023-04-07T01:32:59;16.52;;;9.40;;
28459;SDS011;32528;45.712;9.192;2023-04-07T01:35:01;18.05;;;9.65;;
28459;SDS011;32528;45.712;9.192;2023-04-07T01:37:03;17.90;;;9.75;;
28459;SDS011;32528;45.712;9.192;2023-04-07T01:39:05;20.73;;;9.85;;
28459;SDS011;32528;45.712;9.192;2023-04-07T01:41:07;18.58;;;10.35;;
28459;SDS011;32528;45.712;9.192;2023-04-07T01:43:10;19.20;;;9.88;;
28459;SDS011;32528;45.712;9.192;2023-04-07T01:45:11;25.17;;;10.65;;
28459;SDS011;32528;45.712;9.192;2023-04-07T01:47:13;17.15;;;9.40;;
28459;SDS011;32528;45.712;9.192;2023-04-07T01:49:15;19.65;;;9.18;;
28459;SDS011;32528;45.712;9.192;2023-04-07T01:51:18;15.85;;;10.02;;
28459;SDS011;32528;45.712;9.192;2023-04-07T01:53:20;18.73;;;9.95;;
28459;SDS011;32528;45.712;9.192;2023-04-07T01:55:23;21.65;;;10.23;;
28459;SDS011;32528;45.712;9.192;2023-04-07T01:57:44;15.05;;;9.18;;
28459;SDS011;32528;45.712;9.192;2023-04-07T01:59:52;20.25;;;9.80;;
28459;SDS011;32528;45.712;9.192;2023-04-07T02:01:56;14.65;;;9.35;;
28459;SDS011;32528;45.712;9.192;2023-04-07T02:04:01;20.02;;;9.77;;
28459;SDS011;32528;45.712;9.192;2023-04-07T02:06:06;32.05;;;9.70;;
28459;SDS011;32528;45.712;9.192;2023-04-07T02:08:12;20.20;;;10.50;;
28459;SDS011;32528;45.712;9.192;2023-04-07T02:10:17;18.13;;;9.00;;
28459;SDS011;32528;45.712;9.192;2023-04-07T02:12:22;18.65;;;9.05;;
28459;SDS011;32528;45.712;9.192;2023-04-07T02:14:34;17.48;;;10.05;;
28459;SDS011;32528;45.712;9.192;2023-04-07T02:16:40;20.35;;;8.98;;
28459;SDS011;32528;45.712;9.192;2023-04-07T02:18:42;18.05;;;11.00;;
28459;SDS011;32528;45.712;9.192;2023-04-07T02:20:46;21.55;;;9.55;;
28459;SDS011;32528;45.712;9.192;2023-04-07T02:22:49;17.35;;;8.88;;
28459;SDS011;32528;45.712;9.192;2023-04-07T02:24:51;22.42;;;10.52;;
28459;SDS011;32528;45.712;9.192;2023-04-07T02:26:56;23.50;;;10.25;;
28459;SDS011;32528;45.712;9.192;2023-04-07T02:28:58;23.80;;;10.32;;
28459;SDS011;32528;45.712;9.192;2023-04-07T02:30:58;21.13;;;10.20;;
28459;SDS011;32528;45.712;9.192;2023-04-07T02:32:59;23.98;;;10.80;;
28459;SDS011;32528;45.712;9.192;2023-04-07T02:35:00;20.63;;;11.52;;
28459;SDS011;32528;45.712;9.192;2023-04-07T02:37:01;16.00;;;8.55;;
28459;SDS011;32528;45.712;9.192;2023-04-07T02:39:01;19.73;;;10.90;;
28459;SDS011;32528;45.712;9.192;2023-04-07T02:41:03;15.48;;;9.85;;
28459;SDS011;32528;45.712;9.192;2023-04-07T02:43:03;18.55;;;10.02;;
28459;SDS011;32528;45.712;9.192;2023-04-07T02:45:05;24.65;;;11.30;;
28459;SDS011;32528;45.712;9.192;2023-04-07T02:47:06;14.70;;;8.82;;
28459;SDS011;32528;45.712;9.192;2023-04-07T02:49:07;18.98;;;9.60;;
28459;SDS011;32528;45.712;9.192;2023-04-07T02:51:08;18.17;;;10.35;;
28459;SDS011;32528;45.712;9.192;2023-04-07T02:53:09;17.27;;;9.60;;
28459;SDS011;32528;45.712;9.192;2023-04-07T02:55:10;23.88;;;10.48;;
28459;SDS011;32528;45.712;9.192;2023-04-07T02:57:11;17.27;;;9.18;;
28459;SDS011;32528;45.712;9.192;2023-04-07T02:59:12;23.60;;;10.50;;
28459;SDS011;32528;45.712;9.192;2023-04-07T03:01:16;18.33;;;10.73;;
28459;SDS011;32528;45.712;9.192;2023-04-07T03:03:17;17.75;;;9.02;;
28459;SDS011;32528;45.712;9.192;2023-04-07T03:05:32;20.25;;;11.23;;
28459;SDS011;32528;45.712;9.192;2023-04-07T03:07:34;19.30;;;9.45;;
28459;SDS011;32528;45.712;9.192;2023-04-07T03:09:36;24.98;;;11.50;;
28459;SDS011;32528;45.712;9.192;2023-04-07T03:11:37;19.13;;;10.30;;
28459;SDS011;32528;45.712;9.192;2023-04-07T03:13:38;17.40;;;10.45;;
28459;SDS011;32528;45.712;9.192;2023-04-07T03:15:39;20.23;;;10.63;;
28459;SDS011;32528;45.712;9.192;2023-04-07T03:17:40;15.05;;;9.80;;
28459;SDS011;32528;45.712;9.192;2023-04-07T03:19:41;19.33;;;11.43;;
28459;SDS011;32528;45.712;9.192;2023-04-07T03:21:42;20.20;;;11.57;;
28459;SDS011;32528;45.712;9.192;2023-04-07T03:23:43;18.63;;;9.98;;
28459;SDS011;32528;45.712;9.192;2023-04-07T03:25:44;17.35;;;10.68;;
28459;SDS011;32528;45.712;9.192;2023-04-07T03:27:46;27.17;;;10.98;;
28459;SDS011;32528;45.712;9.192;2023-04-07T03:29:49;21.98;;;10.55;;
28459;SDS011;32528;45.712;9.192;2023-04-07T03:31:53;20.52;;;10.02;;
28459;SDS011;32528;45.712;9.192;2023-04-07T03:33:57;19.50;;;10.60;;
28459;SDS011;32528;45.712;9.192;2023-04-07T03:35:58;20.98;;;10.30;;
28459;SDS011;32528;45.712;9.192;2023-04-07T03:37:59;23.45;;;8.85;;
28459;SDS011;32528;45.712;9.192;2023-04-07T03:40:00;16.73;;;9.05;;
28459;SDS011;32528;45.712;9.192;2023-04-07T03:42:06;18.95;;;8.80;;
28459;SDS011;32528;45.712;9.192;2023-04-07T03:44:08;16.55;;;8.30;;
28459;SDS011;32528;45.712;9.192;2023-04-07T03:46:11;20.27;;;11.25;;
28459;SDS011;32528;45.712;9.192;2023-04-07T03:48:12;19.45;;;8.63;;
28459;SDS011;32528;45.712;9.192;2023-04-07T03:50:25;17.40;;;8.93;;
28459;SDS011;32528;45.712;9.192;2023-04-07T03:52:35;24.48;;;9.13;;
28459;SDS011;32528;45.712;9.192;2023-04-07T03:54:45;18.08;;;10.70;;
28459;SDS011;32528;45.712;9.192;2023-04-07T03:56:47;16.85;;;9.27;;
28459;SDS011;32528;45.712;9.192;2023-04-07T03:58:52;13.55;;;8.73;;
28459;SDS011;32528;45.712;9.192;2023-04-07T04:01:01;15.43;;;9.35;;
28459;SDS011;32528;45.712;9.192;2023-04-07T04:03:04;18.92;;;9.95;;
28459;SDS011;32528;45.712;9.192;2023-04-07T04:05:07;20.25;;;10.00;;
28459;SDS011;32528;45.712;9.192;2023-04-07T04:07:08;21.35;;;8.70;;
28459;SDS011;32528;45.712;9.192;2023-04-07T04:09:14;17.77;;;9.55;;
28459;SDS011;32528;45.712;9.192;2023-04-07T04:11:19;18.98;;;9.30;;
28459;SDS011;32528;45.712;9.192;2023-04-07T04:13:28;16.52;;;8.50;;
28459;SDS011;32528;45.712;9.192;2023-04-07T04:15:32;16.90;;;9.10;;
28459;SDS011;32528;45.712;9.192;2023-04-07T04:17:35;18.15;;;9.70;;
28459;SDS011;32528;45.712;9.192;2023-04-07T04:19:37;17.00;;;7.97;;
28459;SDS011;32528;45.712;9.192;2023-04-07T04:21:55;16.92;;;9.27;;
28459;SDS011;32528;45.712;9.192;2023-04-07T04:23:56;16.20;;;8.05;;
28459;SDS011;32528;45.712;9.192;2023-04-07T04:26:02;16.63;;;9.45;;
28459;SDS011;32528;45.712;9.192;2023-04-07T04:28:06;18.13;;;9.10;;
28459;SDS011;32528;45.712;9.192;2023-04-07T04:30:08;14.25;;;8.13;;
28459;SDS011;32528;45.712;9.192;2023-04-07T04:32:15;18.80;;;9.35;;
28459;SDS011;32528;45.712;9.192;2023-04-07T04:34:17;17.80;;;8.68;;
28459;SDS011;32528;45.712;9.192;2023-04-07T04:36:21;21.35;;;9.57;;
28459;SDS011;32528;45.712;9.192;2023-04-07T04:38:22;16.75;;;9.20;;
28459;SDS011;32528;45.712;9.192;2023-04-07T04:40:28;22.00;;;9.73;;
28459;SDS011;32528;45.712;9.192;2023-04-07T04:42:30;15.52;;;9.52;;
28459;SDS011;32528;45.712;9.192;2023-04-07T04:44:35;18.25;;;9.18;;
28459;SDS011;32528;45.712;9.192;2023-04-07T04:46:38;16.27;;;9.30;;
28459;SDS011;32528;45.712;9.192;2023-04-07T04:48:39;19.92;;;9.27;;
28459;SDS011;32528;45.712;9.192;2023-04-07T04:50:41;18.10;;;9.27;;
28459;SDS011;32528;45.712;9.192;2023-04-07T04:52:45;19.48;;;10.55;;
28459;SDS011;32528;45.712;9.192;2023-04-07T04:54:53;19.08;;;9.38;;
28459;SDS011;32528;45.712;9.192;2023-04-07T04:56:54;17.75;;;9.57;;
28459;SDS011;32528;45.712;9.192;2023-04-07T04:58:56;15.57;;;9.40;;
28459;SDS011;32528;45.712;9.192;2023-04-07T05:01:10;14.85;;;8.90;;
28459;SDS011;32528;45.712;9.192;2023-04-07T05:03:15;16.52;;;8.85;;
28459;SDS011;32528;45.712;9.192;2023-04-07T05:05:21;28.27;;;10.35;;
28459;SDS011;32528;45.712;9.192;2023-04-07T05:07:27;21.92;;;10.27;;
28459;SDS011;32528;45.712;9.192;2023-04-07T05:09:29;19.10;;;10.15;;
28459;SDS011;32528;45.712;9.192;2023-04-07T05:11:31;16.63;;;9.85;;
28459;SDS011;32528;45.712;9.192;2023-04-07T05:13:33;21.15;;;9.90;;
28459;SDS011;32528;45.712;9.192;2023-04-07T05:15:36;22.10;;;9.95;;
28459;SDS011;32528;45.712;9.192;2023-04-07T05:17:40;18.73;;;10.60;;
28459;SDS011;32528;45.712;9.192;2023-04-07T05:19:44;19.90;;;11.00;;
28459;SDS011;32528;45.712;9.192;2023-04-07T05:21:52;19.35;;;11.20;;
28459;SDS011;32528;45.712;9.192;2023-04-07T05:23:55;21.40;;;9.82;;
28459;SDS011;32528;45.712;9.192;2023-04-07T05:25:57;22.25;;;9.73;;
28459;SDS011;32528;45.712;9.192;2023-04-07T05:27:58;24.35;;;11.02;;
28459;SDS011;32528;45.712;9.192;2023-04-07T05:30:01;22.75;;;11.25;;
28459;SDS011;32528;45.712;9.192;2023-04-07T05:32:05;23.05;;;10.32;;
28459;SDS011;32528;45.712;9.192;2023-04-07T05:34:07;23.30;;;10.98;;
28459;SDS011;32528;45.712;9.192;2023-04-07T05:36:12;33.42;;;14.95;;
28459;SDS011;32528;45.712;9.192;2023-04-07T05:38:15;76.88;;;22.42;;
28459;SDS011;32528;45.712;9.192;2023-04-07T05:40:16;84.00;;;33.70;;
28459;SDS011;32528;45.712;9.192;2023-04-07T05:42:18;103.75;;;39.88;;
28459;SDS011;32528;45.712;9.192;2023-04-07T05:44:22;93.18;;;38.63;;
28459;SDS011;32528;45.712;9.192;2023-04-07T05:46:25;51.38;;;27.35;;
28459;SDS011;32528;45.712;9.192;2023-04-07T05:48:30;45.17;;;22.77;;
28459;SDS011;32528;45.712;9.192;2023-04-07T05:50:32;41.25;;;15.85;;
28459;SDS011;32528;45.712;9.192;2023-04-07T05:52:37;29.13;;;16.02;;
28459;SDS011;32528;45.712;9.192;2023-04-07T05:54:49;43.53;;;15.30;;
28459;SDS011;32528;45.712;9.192;2023-04-07T05:56:51;31.45;;;14.95;;
28459;SDS011;32528;45.712;9.192;2023-04-07T05:58:52;32.63;;;15.85;;
28459;SDS011;32528;45.712;9.192;2023-04-07T06:00:53;23.02;;;13.32;;
28459;SDS011;32528;45.712;9.192;2023-04-07T06:02:53;25.13;;;12.07;;
28459;SDS011;32528;45.712;9.192;2023-04-07T06:04:54;28.85;;;13.85;;
28459;SDS011;32528;45.712;9.192;2023-04-07T06:06:55;24.42;;;14.57;;
28459;SDS011;32528;45.712;9.192;2023-04-07T06:08:56;33.80;;;15.52;;
28459;SDS011;32528;45.712;9.192;2023-04-07T06:10:58;44.20;;;17.30;;
28459;SDS011;32528;45.712;9.192;2023-04-07T06:12:59;30.52;;;15.85;;
28459;SDS011;32528;45.712;9.192;2023-04-07T06:15:01;29.42;;;15.38;;
28459;SDS011;32528;45.712;9.192;2023-04-07T06:17:01;38.40;;;24.77;;
28459;SDS011;32528;45.712;9.192;2023-04-07T06:19:03;65.55;;;33.00;;
28459;SDS011;32528;45.712;9.192;2023-04-07T06:21:04;59.95;;;35.58;;
28459;SDS011;32528;45.712;9.192;2023-04-07T06:23:05;38.38;;;23.70;;
28459;SDS011;32528;45.712;9.192;2023-04-07T06:25:06;34.95;;;23.98;;
28459;SDS011;32528;45.712;9.192;2023-04-07T06:27:07;41.55;;;29.58;;
28459;SDS011;32528;45.712;9.192;2023-04-07T06:29:08;37.63;;;24.45;;
28459;SDS011;32528;45.712;9.192;2023-04-07T06:31:09;48.90;;;23.92;;
28459;SDS011;32528;45.712;9.192;2023-04-07T06:33:11;30.90;;;20.55;;
28459;SDS011;32528;45.712;9.192;2023-04-07T06:35:13;43.72;;;18.98;;
28459;SDS011;32528;45.712;9.192;2023-04-07T06:37:15;30.45;;;13.80;;
28459;SDS011;32528;45.712;9.192;2023-04-07T06:39:16;24.08;;;13.20;;
28459;SDS011;32528;45.712;9.192;2023-04-07T06:41:16;32.88;;;13.85;;
28459;SDS011;32528;45.712;9.192;2023-04-07T06:43:17;30.52;;;14.05;;
28459;SDS011;32528;45.712;9.192;2023-04-07T06:45:30;35.70;;;13.90;;
28459;SDS011;32528;45.712;9.192;2023-04-07T06:47:31;37.75;;;13.57;;
28459;SDS011;32528;45.712;9.192;2023-04-07T06:49:32;27.77;;;12.13;;
28459;SDS011;32528;45.712;9.192;2023-04-07T06:51:32;31.38;;;14.13;;
28459;SDS011;32528;45.712;9.192;2023-04-07T06:53:33;26.95;;;15.20;;
28459;SDS011;32528;45.712;9.192;2023-04-07T06:55:34;34.67;;;13.43;;
28459;SDS011;32528;45.712;9.192;2023-04-07T06:57:35;43.90;;;14.15;;
28459;SDS011;32528;45.712;9.192;2023-04-07T06:59:37;30.20;;;13.38;;
28459;SDS011;32528;45.712;9.192;2023-04-07T07:01:38;31.35;;;12.50;;
28459;SDS011;32528;45.712;9.192;2023-04-07T07:03:39;28.63;;;14.32;;
28459;SDS011;32528;45.712;9.192;2023-04-07T07:05:39;47.90;;;24.20;;
28459;SDS011;32528;45.712;9.192;2023-04-07T07:07:40;51.70;;;30.23;;
28459;SDS011;32528;45.712;9.192;2023-04-07T07:09:41;77.75;;;39.65;;
28459;SDS011;32528;45.712;9.192;2023-04-07T07:11:42;83.95;;;54.83;;
28459;SDS011;32528;45.712;9.192;2023-04-07T07:13:42;94.57;;;61.70;;
28459;SDS011;32528;45.712;9.192;2023-04-07T07:15:44;83.20;;;57.35;;
28459;SDS011;32528;45.712;9.192;2023-04-07T07:17:46;47.25;;;27.52;;
28459;SDS011;32528;45.712;9.192;2023-04-07T07:19:46;39.60;;;22.65;;
28459;SDS011;32528;45.712;9.192;2023-04-07T07:21:47;41.45;;;22.40;;
28459;SDS011;32528;45.712;9.192;2023-04-07T07:23:49;33.85;;;20.83;;
28459;SDS011;32528;45.712;9.192;2023-04-07T07:25:50;36.03;;;16.90;;
28459;SDS011;32528;45.712;9.192;2023-04-07T07:27:51;41.38;;;17.88;;
28459;SDS011;32528;45.712;9.192;2023-04-07T07:29:52;29.88;;;15.55;;
28459;SDS011;32528;45.712;9.192;2023-04-07T07:31:53;30.23;;;16.15;;
28459;SDS011;32528;45.712;9.192;2023-04-07T07:33:53;22.40;;;13.45;;
28459;SDS011;32528;45.712;9.192;2023-04-07T07:35:54;25.70;;;13.43;;
28459;SDS011;32528;45.712;9.192;2023-04-07T07:37:55;34.20;;;14.57;;
28459;SDS011;32528;45.712;9.192;2023-04-07T07:39:55;30.60;;;13.27;;
28459;SDS011;32528;45.712;9.192;2023-04-07T07:41:56;23.20;;;11.90;;
28459;SDS011;32528;45.712;9.192;2023-04-07T07:43:59;27.23;;;13.63;;
28459;SDS011;32528;45.712;9.192;2023-04-07T07:45:59;20.15;;;11.27;;
28459;SDS011;32528;45.712;9.192;2023-04-07T07:48:00;23.00;;;11.45;;
28459;SDS011;32528;45.712;9.192;2023-04-07T07:50:01;24.83;;;12.30;;
28459;SDS011;32528;45.712;9.192;2023-04-07T07:52:02;21.17;;;10.55;;
28459;SDS011;32528;45.712;9.192;2023-04-07T07:54:03;18.52;;;10.43;;
28459;SDS011;32528;45.712;9.192;2023-04-07T07:56:04;18.63;;;10.68;;
28459;SDS011;32528;45.712;9.192;2023-04-07T07:58:05;18.95;;;9.85;;
28459;SDS011;32528;45.712;9.192;2023-04-07T08:00:06;18.13;;;9.90;;
28459;SDS011;32528;45.712;9.192;2023-04-07T08:02:13;20.10;;;11.02;;
28459;SDS011;32528;45.712;9.192;2023-04-07T08:04:15;30.98;;;13.20;;
28459;SDS011;32528;45.712;9.192;2023-04-07T08:06:15;24.75;;;12.32;;
28459;SDS011;32528;45.712;9.192;2023-04-07T08:08:17;24.70;;;12.20;;
28459;SDS011;32528;45.712;9.192;2023-04-07T08:10:17;21.52;;;11.48;;
28459;SDS011;32528;45.712;9.192;2023-04-07T08:12:19;21.77;;;11.57;;
28459;SDS011;32528;45.712;9.192;2023-04-07T08:14:20;24.42;;;11.55;;
28459;SDS011;32528;45.712;9.192;2023-04-07T08:16:21;34.78;;;13.07;;
28459;SDS011;32528;45.712;9.192;2023-04-07T08:18:23;28.33;;;11.40;;
28459;SDS011;32528;45.712;9.192;2023-04-07T08:20:25;26.92;;;11.75;;
28459;SDS011;32528;45.712;9.192;2023-04-07T08:22:26;20.58;;;10.85;;
28459;SDS011;32528;45.712;9.192;2023-04-07T08:24:27;21.08;;;10.77;;
28459;SDS011;32528;45.712;9.192;2023-04-07T08:26:28;18.80;;;11.15;;
28459;SDS011;32528;45.712;9.192;2023-04-07T08:28:29;17.95;;;9.57;;
28459;SDS011;32528;45.712;9.192;2023-04-07T08:30:30;29.30;;;11.20;;
28459;SDS011;32528;45.712;9.192;2023-04-07T08:32:39;26.98;;;11.32;;
28459;SDS011;32528;45.712;9.192;2023-04-07T08:34:42;22.43;;;9.80;;
28459;SDS011;32528;45.712;9.192;2023-04-07T08:36:42;36.25;;;9.88;;
28459;SDS011;32528;45.712;9.192;2023-04-07T08:38:43;22.60;;;10.27;;
28459;SDS011;32528;45.712;9.192;2023-04-07T08:40:44;44.13;;;11.93;;
28459;SDS011;32528;45.712;9.192;2023-04-07T08:42:47;24.95;;;11.45;;
28459;SDS011;32528;45.712;9.192;2023-04-07T08:44:48;16.67;;;10.85;;
28459;SDS011;32528;45.712;9.192;2023-04-07T08:46:51;18.10;;;10.55;;
28459;SDS011;32528;45.712;9.192;2023-04-07T08:48:55;17.15;;;9.60;;
28459;SDS011;32528;45.712;9.192;2023-04-07T08:50:57;24.52;;;11.32;;
28459;SDS011;32528;45.712;9.192;2023-04-07T08:52:59;22.50;;;12.45;;
28459;SDS011;32528;45.712;9.192;2023-04-07T08:55:04;30.35;;;12.38;;
28459;SDS011;32528;45.712;9.192;2023-04-07T08:57:07;26.92;;;11.45;;
28459;SDS011;32528;45.712;9.192;2023-04-07T08:59:10;31.38;;;12.60;;
28459;SDS011;32528;45.712;9.192;2023-04-07T09:01:14;25.33;;;12.70;;
28459;SDS011;32528;45.712;9.192;2023-04-07T09:03:15;22.65;;;12.32;;
28459;SDS011;32528;45.712;9.192;2023-04-07T09:05:17;38.55;;;13.18;;
28459;SDS011;32528;45.712;9.192;2023-04-07T09:07:18;18.85;;;11.23;;
28459;SDS011;32528;45.712;9.192;2023-04-07T09:09:18;22.92;;;10.32;;
28459;SDS011;32528;45.712;9.192;2023-04-07T09:11:19;23.17;;;11.20;;
28459;SDS011;32528;45.712;9.192;2023-04-07T09:13:21;25.85;;;10.50;;
28459;SDS011;32528;45.712;9.192;2023-04-07T09:15:23;25.60;;;10.85;;
28459;SDS011;32528;45.712;9.192;2023-04-07T09:17:26;16.00;;;10.85;;
28459;SDS011;32528;45.712;9.192;2023-04-07T09:19:27;25.50;;;11.23;;
28459;SDS011;32528;45.712;9.192;2023-04-07T09:25:52;30.35;;;11.48;;
28459;SDS011;32528;45.712;9.192;2023-04-07T09:28:00;28.20;;;11.45;;
28459;SDS011;32528;45.712;9.192;2023-04-07T09:30:11;28.23;;;12.73;;
28459;SDS011;32528;45.712;9.192;2023-04-07T09:34:37;20.95;;;13.23;;
28459;SDS011;32528;45.712;9.192;2023-04-07T09:36:40;23.25;;;11.88;;
28459;SDS011;32528;45.712;9.192;2023-04-07T09:38:41;18.45;;;11.38;;
28459;SDS011;32528;45.712;9.192;2023-04-07T09:40:43;33.15;;;13.07;;
28459;SDS011;32528;45.712;9.192;2023-04-07T09:42:45;32.53;;;13.60;;
28459;SDS011;32528;45.712;9.192;2023-04-07T09:44:47;32.15;;;13.18;;
28459;SDS011;32528;45.712;9.192;2023-04-07T09:46:49;26.60;;;12.77;;
28459;SDS011;32528;45.712;9.192;2023-04-07T09:49:00;20.50;;;13.13;;
28459;SDS011;32528;45.712;9.192;2023-04-07T09:51:04;35.17;;;13.27;;
28459;SDS011;32528;45.712;9.192;2023-04-07T09:53:07;24.60;;;11.43;;
28459;SDS011;32528;45.712;9.192;2023-04-07T09:55:07;21.25;;;11.95;;
28459;SDS011;32528;45.712;9.192;2023-04-07T09:57:09;23.00;;;10.80;;
28459;SDS011;32528;45.712;9.192;2023-04-07T09:59:11;19.13;;;11.38;;
28459;SDS011;32528;45.712;9.192;2023-04-07T10:01:15;22.67;;;11.23;;
28459;SDS011;32528;45.712;9.192;2023-04-07T10:03:17;18.77;;;10.80;;
28459;SDS011;32528;45.712;9.192;2023-04-07T10:05:18;19.65;;;11.70;;
28459;SDS011;32528;45.712;9.192;2023-04-07T10:07:21;21.77;;;12.30;;
28459;SDS011;32528;45.712;9.192;2023-04-07T10:09:22;20.70;;;10.55;;
28459;SDS011;32528;45.712;9.192;2023-04-07T10:11:25;22.73;;;12.43;;
28459;SDS011;32528;45.712;9.192;2023-04-07T10:13:26;33.08;;;11.75;;
28459;SDS011;32528;45.712;9.192;2023-04-07T10:15:28;25.13;;;12.30;;
28459;SDS011;32528;45.712;9.192;2023-04-07T10:17:30;15.48;;;9.95;;
28459;SDS011;32528;45.712;9.192;2023-04-07T10:19:33;16.27;;;9.88;;
28459;SDS011;32528;45.712;9.192;2023-04-07T10:21:36;30.40;;;10.48;;
28459;SDS011;32528;45.712;9.192;2023-04-07T10:25:57;20.05;;;10.95;;
28459;SDS011;32528;45.712;9.192;2023-04-07T10:28:02;19.92;;;10.60;;
28459;SDS011;32528;45.712;9.192;2023-04-07T10:30:11;23.52;;;12.93;;
28459;SDS011;32528;45.712;9.192;2023-04-07T10:32:14;16.40;;;10.93;;
28459;SDS011;32528;45.712;9.192;2023-04-07T10:34:16;28.52;;;10.98;;
28459;SDS011;32528;45.712;9.192;2023-04-07T10:36:17;18.40;;;9.65;;
28459;SDS011;32528;45.712;9.192;2023-04-07T10:38:19;20.60;;;9.48;;
28459;SDS011;32528;45.712;9.192;2023-04-07T10:49:06;17.10;;;9.88;;
28459;SDS011;32528;45.712;9.192;2023-04-07T10:51:11;15.82;;;8.77;;
28459;SDS011;32528;45.712;9.192;2023-04-07T10:53:14;24.45;;;9.98;;
28459;SDS011;32528;45.712;9.192;2023-04-07T10:55:28;15.75;;;9.63;;
28459;SDS011;32528;45.712;9.192;2023-04-07T10:57:29;23.00;;;8.93;;
28459;SDS011;32528;45.712;9.192;2023-04-07T10:59:30;17.27;;;10.00;;
28459;SDS011;32528;45.712;9.192;2023-04-07T11:01:32;14.48;;;9.27;;
28459;SDS011;32528;45.712;9.192;2023-04-07T11:05:36;19.92;;;9.15;;
28459;SDS011;32528;45.712;9.192;2023-04-07T11:07:44;19.10;;;8.80;;
28459;SDS011;32528;45.712;9.192;2023-04-07T11:09:47;23.05;;;9.50;;
28459;SDS011;32528;45.712;9.192;2023-04-07T11:11:48;24.67;;;9.93;;
28459;SDS011;32528;45.712;9.192;2023-04-07T11:13:50;18.83;;;8.75;;
28459;SDS011;32528;45.712;9.192;2023-04-07T11:15:51;24.70;;;10.38;;
28459;SDS011;32528;45.712;9.192;2023-04-07T11:18:06;25.08;;;11.27;;
28459;SDS011;32528;45.712;9.192;2023-04-07T11:20:11;16.90;;;9.93;;
28459;SDS011;32528;45.712;9.192;2023-04-07T11:22:12;19.35;;;10.30;;
28459;SDS011;32528;45.712;9.192;2023-04-07T11:24:32;18.23;;;10.75;;
28459;SDS011;32528;45.712;9.192;2023-04-07T11:26:37;17.48;;;9.88;;
28459;SDS011;32528;45.712;9.192;2023-04-07T11:28:48;28.10;;;10.73;;
28459;SDS011;32528;45.712;9.192;2023-04-07T11:30:52;32.33;;;11.35;;
28459;SDS011;32528;45.712;9.192;2023-04-07T11:32:54;20.40;;;10.60;;
28459;SDS011;32528;45.712;9.192;2023-04-07T11:34:56;18.83;;;10.65;;
28459;SDS011;32528;45.712;9.192;2023-04-07T11:36:57;22.83;;;10.88;;
28459;SDS011;32528;45.712;9.192;2023-04-07T11:39:21;25.08;;;12.60;;
28459;SDS011;32528;45.712;9.192;2023-04-07T11:41:21;22.15;;;10.65;;
28459;SDS011;32528;45.712;9.192;2023-04-07T11:43:25;22.52;;;11.63;;
28459;SDS011;32528;45.712;9.192;2023-04-07T11:45:27;20.50;;;10.82;;
28459;SDS011;32528;45.712;9.192;2023-04-07T11:47:37;20.63;;;10.07;;
28459;SDS011;32528;45.712;9.192;2023-04-07T11:49:48;19.55;;;11.02;;
28459;SDS011;32528;45.712;9.192;2023-04-07T11:51:56;38.15;;;11.80;;
28459;SDS011;32528;45.712;9.192;2023-04-07T11:53:58;21.45;;;12.45;;
28459;SDS011;32528;45.712;9.192;2023-04-07T11:56:08;20.33;;;11.25;;
28459;SDS011;32528;45.712;9.192;2023-04-07T11:58:15;19.33;;;11.75;;
28459;SDS011;32528;45.712;9.192;2023-04-07T12:00:16;27.55;;;11.60;;
28459;SDS011;32528;45.712;9.192;2023-04-07T12:02:30;21.38;;;12.30;;
28459;SDS011;32528;45.712;9.192;2023-04-07T12:04:34;24.48;;;11.82;;
28459;SDS011;32528;45.712;9.192;2023-04-07T12:06:36;30.58;;;11.82;;
28459;SDS011;32528;45.712;9.192;2023-04-07T12:08:38;22.50;;;12.27;;
28459;SDS011;32528;45.712;9.192;2023-04-07T12:10:40;33.53;;;14.40;;
28459;SDS011;32528;45.712;9.192;2023-04-07T12:12:43;20.30;;;13.13;;
28459;SDS011;32528;45.712;9.192;2023-04-07T12:14:45;25.95;;;14.00;;
28459;SDS011;32528;45.712;9.192;2023-04-07T12:16:46;26.20;;;12.75;;
28459;SDS011;32528;45.712;9.192;2023-04-07T12:18:47;28.38;;;12.85;;
28459;SDS011;32528;45.712;9.192;2023-04-07T12:20:48;21.00;;;12.88;;
28459;SDS011;32528;45.712;9.192;2023-04-07T12:22:49;26.20;;;12.02;;
28459;SDS011;32528;45.712;9.192;2023-04-07T12:24:51;20.92;;;11.63;;
28459;SDS011;32528;45.712;9.192;2023-04-07T12:26:51;17.13;;;10.98;;
28459;SDS011;32528;45.712;9.192;2023-04-07T12:28:52;18.17;;;9.80;;
28459;SDS011;32528;45.712;9.192;2023-04-07T12:30:54;17.00;;;8.88;;